createdAt,value
2023-03-02T00:00:31.677Z,99.993896
2023-03-02T00:01:40.363Z,99.993896
2023-03-02T00:02:50.058Z,99.993896
2023-03-02T00:03:58.659Z,99.993896
2023-03-02T00:05:07.319Z,99.993896
2023-03-02T00:06:17.003Z,99.993896
2023-03-02T00:07:25.666Z,99.993896
2023-03-02T00:08:35.373Z,99.993896
2023-03-02T00:09:43.022Z,99.993896
2023-03-02T00:10:50.728Z,99.993896
2023-03-02T00:12:00.443Z,99.993896
2023-03-02T00:13:10.114Z,99.993896
2023-03-02T00:14:18.834Z,99.993896
2023-03-02T00:15:27.526Z,99.993896
2023-03-02T00:16:36.199Z,99.993896
2023-03-02T00:17:45.890Z,99.993896
2023-03-02T00:18:54.574Z,99.993896
2023-03-02T00:20:04.359Z,99.993896
2023-03-02T00:21:14.072Z,99.993896
2023-03-02T00:22:22.782Z,99.993896
2023-03-02T00:23:31.457Z,99.993896
2023-03-02T00:24:41.184Z,99.993896
2023-03-02T00:25:50.839Z,99.993896
2023-03-02T00:26:59.518Z,99.993896
2023-03-02T00:28:09.189Z,99.993896
2023-03-02T00:29:17.879Z,99.993896
2023-03-02T00:30:27.577Z,99.993896
2023-03-02T00:31:37.289Z,99.993896
2023-03-02T00:32:46.955Z,99.993896
2023-03-02T00:33:56.680Z,99.993896
2023-03-02T00:35:06.356Z,99.993896
2023-03-02T00:36:14.051Z,99.993896
2023-03-02T00:37:23.747Z,99.993896
2023-03-02T00:38:33.430Z,99.993896
2023-03-02T00:39:43.099Z,99.993896
2023-03-02T00:40:52.828Z,99.993896
2023-03-02T00:42:02.538Z,99.993896
2023-03-02T00:43:12.232Z,99.993896
2023-03-02T00:44:20.920Z,99.993896
2023-03-02T00:45:29.609Z,99.993896
2023-03-02T00:46:39.370Z,99.993896
2023-03-02T00:47:47.966Z,99.993896
2023-03-02T00:48:57.705Z,99.993896
2023-03-02T00:50:06.423Z,99.993896
2023-03-02T00:51:16.095Z,99.993896
2023-03-02T00:52:25.792Z,99.993896
2023-03-02T00:53:33.451Z,99.993896
2023-03-02T00:54:42.135Z,99.993896
2023-03-02T00:55:51.828Z,99.993896
2023-03-02T00:57:00.524Z,99.993896
2023-03-02T00:58:10.227Z,99.993896
2023-03-02T00:59:19.904Z,99.993896
2023-03-02T01:00:28.572Z,99.993896
2023-03-02T01:01:38.296Z,99.993896
2023-03-02T01:02:47.187Z,99.993896
2023-03-02T01:03:56.636Z,99.993896
2023-03-02T01:05:06.388Z,99.993896
2023-03-02T01:06:15.105Z,99.993896
2023-03-02T01:07:24.752Z,99.993896
2023-03-02T01:08:33.428Z,99.993896
2023-03-02T01:09:43.101Z,99.993896
2023-03-02T01:10:53.939Z,99.993896
2023-03-02T01:12:00.476Z,99.993896
2023-03-02T01:13:10.139Z,99.993896
2023-03-02T01:14:19.812Z,99.993896
2023-03-02T01:15:29.480Z,99.993896
2023-03-02T01:16:38.262Z,99.993896
2023-03-02T01:17:46.829Z,99.993896
2023-03-02T01:18:55.478Z,99.993896
2023-03-02T01:20:03.169Z,99.993896
2023-03-02T01:21:10.835Z,99.993896
2023-03-02T01:22:19.550Z,99.993896
2023-03-02T01:23:29.205Z,99.993896
2023-03-02T01:24:38.880Z,99.993896
2023-03-02T01:25:47.550Z,99.993896
2023-03-02T01:26:56.249Z,99.993896
2023-03-02T01:28:04.943Z,99.993896
2023-03-02T01:29:14.644Z,99.993896
2023-03-02T01:30:22.321Z,99.993896
2023-03-02T01:31:31.141Z,99.993896
2023-03-02T01:32:40.760Z,99.993896
2023-03-02T01:33:49.376Z,99.993896
2023-03-02T01:34:59.055Z,99.993896
2023-03-02T01:36:07.716Z,99.993896
2023-03-02T01:37:16.394Z,99.993896
2023-03-02T01:38:26.142Z,99.993896
2023-03-02T01:39:35.753Z,99.993896
2023-03-02T01:40:44.384Z,99.993896
2023-03-02T01:41:54.090Z,99.993896
2023-03-02T01:43:03.744Z,99.993896
2023-03-02T01:44:12.483Z,99.993896
2023-03-02T01:45:22.226Z,99.993896
2023-03-02T01:46:31.020Z,99.993896
2023-03-02T01:47:40.513Z,99.993896
2023-03-02T01:48:48.169Z,99.993896
2023-03-02T01:49:56.888Z,99.993896
2023-03-02T01:51:06.583Z,99.993896
2023-03-02T01:52:16.248Z,99.993896
2023-03-02T01:53:24.918Z,99.993896
2023-03-02T01:54:33.644Z,99.993896
2023-03-02T01:55:42.332Z,99.993896
2023-03-02T01:56:52.030Z,99.993896
2023-03-02T01:58:00.739Z,99.993896
2023-03-02T01:59:08.395Z,99.993896
2023-03-02T02:00:18.116Z,99.993896
2023-03-02T02:01:26.859Z,99.993896
2023-03-02T02:02:35.551Z,99.993896
2023-03-02T02:03:44.265Z,99.993896
2023-03-02T02:04:52.901Z,99.993896
2023-03-02T02:06:02.613Z,99.993896
2023-03-02T02:07:11.304Z,99.993896
2023-03-02T02:08:18.972Z,99.993896
2023-03-02T02:09:28.637Z,99.993896
2023-03-02T02:10:37.326Z,99.993896
2023-03-02T02:11:46.015Z,99.993896
2023-03-02T02:12:54.725Z,99.993896
2023-03-02T02:14:03.399Z,99.993896
2023-03-02T02:15:13.066Z,99.993896
2023-03-02T02:16:20.865Z,99.993896
2023-03-02T02:17:30.498Z,99.993896
2023-03-02T02:18:39.254Z,99.993896
2023-03-02T02:19:47.908Z,99.993896
2023-03-02T02:20:57.578Z,99.993896
2023-03-02T02:22:07.300Z,99.993896
2023-03-02T02:23:16.987Z,99.993896
2023-03-02T02:24:24.657Z,99.993896
2023-03-02T02:25:34.362Z,99.993896
2023-03-02T02:26:43.049Z,99.993896
2023-03-02T02:27:51.770Z,99.993896
2023-03-02T02:29:00.442Z,99.993896
2023-03-02T02:30:10.096Z,99.993896
2023-03-02T02:31:19.816Z,99.993896
2023-03-02T02:32:28.545Z,99.993896
2023-03-02T02:33:38.250Z,99.993896
2023-03-02T02:34:47.935Z,99.993896
2023-03-02T02:35:57.614Z,99.993896
2023-03-02T02:37:06.273Z,99.993896
2023-03-02T02:38:15.970Z,99.993896
2023-03-02T02:39:24.623Z,99.993896
2023-03-02T02:40:34.359Z,99.993896
2023-03-02T02:41:43.033Z,99.993896
2023-03-02T02:42:50.746Z,99.993896
2023-03-02T02:44:00.469Z,99.993896
2023-03-02T02:45:08.112Z,99.993896
2023-03-02T02:46:16.876Z,99.993896
2023-03-02T02:47:26.463Z,99.993896
2023-03-02T02:48:36.157Z,99.993896
2023-03-02T02:49:45.820Z,99.993896
2023-03-02T02:50:54.495Z,99.993896
2023-03-02T02:52:03.159Z,99.993896
2023-03-02T02:53:12.891Z,99.993896
2023-03-02T02:54:21.548Z,99.993896
2023-03-02T02:55:31.217Z,99.993896
2023-03-02T02:56:39.904Z,99.993896
2023-03-02T02:57:48.553Z,99.993896
2023-03-02T02:58:58.261Z,99.993896
2023-03-02T03:00:06.928Z,99.993896
2023-03-02T03:01:14.607Z,99.993896
2023-03-02T03:02:24.288Z,99.993896
2023-03-02T03:03:33.990Z,99.993896
2023-03-02T03:04:43.781Z,99.993896
2023-03-02T03:05:53.400Z,99.993896
2023-03-02T03:07:02.126Z,99.993896
2023-03-02T03:08:11.882Z,99.993896
2023-03-02T03:09:19.561Z,99.993896
2023-03-02T03:10:29.213Z,99.993896
2023-03-02T03:11:38.941Z,99.993896
2023-03-02T03:12:47.604Z,99.993896
2023-03-02T03:13:56.297Z,99.993896
2023-03-02T03:15:05.054Z,99.993896
2023-03-02T03:16:14.709Z,99.993896
2023-03-02T03:17:24.358Z,99.993896
2023-03-02T03:18:33.017Z,99.993896
2023-03-02T03:19:40.674Z,99.993896
2023-03-02T03:20:49.338Z,99.993896
2023-03-02T03:21:58.003Z,99.993896
2023-03-02T03:23:06.702Z,99.993896
2023-03-02T03:24:15.394Z,99.993896
2023-03-02T03:25:24.053Z,99.993896
2023-03-02T03:26:34.104Z,99.993896
2023-03-02T03:27:41.392Z,99.993896
2023-03-02T03:28:50.110Z,99.993896
2023-03-02T03:29:59.784Z,99.993896
2023-03-02T03:31:09.655Z,99.993896
2023-03-02T03:32:18.261Z,99.993896
2023-03-02T03:33:27.921Z,99.993896
2023-03-02T03:34:36.712Z,99.993896
2023-03-02T03:35:46.512Z,99.993896
2023-03-02T03:36:54.102Z,99.993896
2023-03-02T03:38:03.767Z,99.993896
2023-03-02T03:39:13.488Z,99.993896
2023-03-02T03:40:23.173Z,99.993896
2023-03-02T03:41:32.936Z,99.993896
2023-03-02T03:42:41.595Z,99.993896
2023-03-02T03:43:50.266Z,99.993896
2023-03-02T03:44:59.960Z,99.993896
2023-03-02T03:46:08.687Z,99.993896
2023-03-02T03:47:16.318Z,99.993896
2023-03-02T03:48:25.946Z,99.993896
2023-03-02T03:49:35.695Z,99.993896
2023-03-02T03:50:45.425Z,99.993896
2023-03-02T03:51:54.109Z,99.993896
2023-03-02T03:53:04.051Z,99.993896
2023-03-02T03:54:13.465Z,99.993896
2023-03-02T03:55:22.203Z,99.993896
2023-03-02T03:56:29.992Z,99.993896
2023-03-02T03:57:39.502Z,99.993896
2023-03-02T03:58:49.310Z,99.993896
2023-03-02T03:59:56.890Z,99.993896
2023-03-02T04:01:06.567Z,99.993896
2023-03-02T04:02:15.257Z,99.993896
2023-03-02T04:03:24.980Z,99.993896
2023-03-02T04:04:33.739Z,99.993896
2023-03-02T04:05:42.447Z,99.993896
2023-03-02T04:06:52.122Z,99.993896
2023-03-02T04:08:00.796Z,99.993896
2023-03-02T04:09:10.507Z,99.993896
2023-03-02T04:10:19.166Z,99.993896
2023-03-02T04:11:28.840Z,99.993896
2023-03-02T04:12:38.508Z,99.993896
2023-03-02T04:13:47.208Z,99.993896
2023-03-02T04:14:54.874Z,99.993896
2023-03-02T04:16:04.672Z,99.993896
2023-03-02T04:17:14.398Z,99.993896
2023-03-02T04:18:24.068Z,99.993896
2023-03-02T04:19:33.832Z,99.993896
2023-03-02T04:20:42.475Z,99.993896
2023-03-02T04:21:50.163Z,99.993896
2023-03-02T04:22:59.866Z,99.993896
2023-03-02T04:24:08.552Z,99.993896
2023-03-02T04:25:17.225Z,99.993896
2023-03-02T04:26:26.946Z,99.993896
2023-03-02T04:27:35.613Z,99.993896
2023-03-02T04:28:45.292Z,99.993896
2023-03-02T04:29:54.011Z,99.993896
2023-03-02T04:31:03.726Z,99.993896
2023-03-02T04:32:13.410Z,99.993896
2023-03-02T04:33:22.047Z,99.993896
2023-03-02T04:34:29.736Z,99.993896
2023-03-02T04:35:38.524Z,99.993896
2023-03-02T04:36:48.046Z,99.993896
2023-03-02T04:37:57.763Z,99.993896
2023-03-02T04:39:07.433Z,99.993896
2023-03-02T04:40:15.130Z,99.993896
2023-03-02T04:41:24.798Z,99.993896
2023-03-02T04:42:33.447Z,99.993896
2023-03-02T04:43:43.117Z,99.993896
2023-03-02T04:44:52.866Z,99.993896
2023-03-02T04:46:01.557Z,99.993896
2023-03-02T04:47:11.277Z,99.993896
2023-03-02T04:48:20.098Z,99.993896
2023-03-02T04:49:28.853Z,99.993896
2023-03-02T04:50:38.577Z,99.993896
2023-03-02T04:51:47.350Z,99.993896
2023-03-02T04:52:55.908Z,99.993896
2023-03-02T04:54:05.578Z,99.993896
2023-03-02T04:55:15.258Z,99.993896
2023-03-02T04:56:24.938Z,99.993896
2023-03-02T04:57:32.597Z,99.993896
2023-03-02T04:58:42.258Z,99.993896
2023-03-02T04:59:51.943Z,99.993896
2023-03-02T05:01:01.632Z,99.993896
2023-03-02T05:02:11.371Z,99.993896
2023-03-02T05:03:20.989Z,99.993896
2023-03-02T05:04:29.726Z,99.993896
2023-03-02T05:05:39.333Z,99.993896
2023-03-02T05:06:48.043Z,99.993896
2023-03-02T05:07:56.727Z,99.993896
2023-03-02T05:09:06.386Z,99.993896
2023-03-02T05:10:15.125Z,99.993896
2023-03-02T05:11:23.786Z,99.993896
2023-03-02T05:12:32.467Z,99.993896
2023-03-02T05:13:42.147Z,99.993896
2023-03-02T05:14:51.872Z,99.993896
2023-03-02T05:16:00.604Z,99.993896
2023-03-02T05:17:08.208Z,99.993896
2023-03-02T05:18:17.926Z,99.993896
2023-03-02T05:19:26.587Z,99.993896
2023-03-02T05:20:36.308Z,99.993896
2023-03-02T05:21:46.018Z,99.993896
2023-03-02T05:22:54.684Z,99.993896
2023-03-02T05:24:04.658Z,99.993896
2023-03-02T05:25:13.238Z,99.993896
2023-03-02T05:26:21.954Z,99.993896
2023-03-02T05:27:38.707Z,99.993896
2023-03-02T05:28:48.361Z,99.993896
2023-03-02T05:29:58.004Z,99.993896
2023-03-02T05:31:07.724Z,99.993896
2023-03-02T05:32:16.399Z,99.993896
2023-03-02T05:33:24.030Z,99.993896
2023-03-02T05:34:33.696Z,99.993896
2023-03-02T05:35:42.411Z,99.993896
2023-03-02T05:36:52.069Z,99.993896
2023-03-02T05:38:01.767Z,99.993896
2023-03-02T05:39:11.471Z,99.993896
2023-03-02T05:40:21.139Z,99.993896
2023-03-02T05:41:30.798Z,99.993896
2023-03-02T05:42:39.461Z,99.993896
2023-03-02T05:43:49.129Z,99.993896
2023-03-02T05:44:57.780Z,99.993896
2023-03-02T05:46:07.467Z,99.993896
2023-03-02T05:47:17.124Z,99.993896
2023-03-02T05:48:26.773Z,99.993896
2023-03-02T05:49:36.445Z,99.993896
2023-03-02T05:50:45.204Z,99.993896
2023-03-02T05:51:52.820Z,99.993896
2023-03-02T05:53:02.555Z,99.993896
2023-03-02T05:54:11.148Z,99.993896
2023-03-02T05:55:19.838Z,99.993896
2023-03-02T05:56:29.477Z,99.993896
2023-03-02T05:57:38.183Z,99.993896
2023-03-02T05:58:47.862Z,99.993896
2023-03-02T05:59:56.520Z,99.993896
2023-03-02T06:01:04.331Z,99.993896
2023-03-02T06:02:14.073Z,99.993896
2023-03-02T06:03:22.725Z,99.993896
2023-03-02T06:04:30.364Z,99.993896
2023-03-02T06:05:39.082Z,99.993896
2023-03-02T06:06:47.733Z,99.993896
2023-03-02T06:07:57.408Z,99.993896
2023-03-02T06:09:06.065Z,99.993896
2023-03-02T06:10:14.720Z,99.993896
2023-03-02T06:11:24.447Z,99.993896
2023-03-02T06:12:34.063Z,99.993896
2023-03-02T06:13:42.744Z,99.993896
2023-03-02T06:14:52.394Z,99.993896
2023-03-02T06:16:00.156Z,99.993896
2023-03-02T06:17:07.702Z,99.993896
2023-03-02T06:18:17.363Z,99.993896
2023-03-02T06:19:26.016Z,99.993896
2023-03-02T06:20:34.667Z,99.993896
2023-03-02T06:21:43.340Z,99.993896
2023-03-02T06:22:51.992Z,99.993896
2023-03-02T06:24:01.646Z,99.993896
2023-03-02T06:25:10.368Z,99.993896
2023-03-02T06:26:17.990Z,99.993896
2023-03-02T06:27:27.670Z,99.993896
2023-03-02T06:28:46.405Z,99.993896
2023-03-02T06:29:46.916Z,99.993896
2023-03-02T06:30:56.678Z,99.993896
2023-03-02T06:32:05.449Z,99.993896
2023-03-02T06:33:13.989Z,99.993896
2023-03-02T06:34:21.635Z,99.993896
2023-03-02T06:35:29.483Z,99.993896
2023-03-02T06:36:39.087Z,99.993896
2023-03-02T06:37:47.641Z,99.993896
2023-03-02T06:38:57.302Z,99.993896
2023-03-02T06:40:06.978Z,99.993896
2023-03-02T06:41:15.675Z,99.993896
2023-03-02T06:42:26.326Z,99.993896
2023-03-02T06:43:35.006Z,99.993896
2023-03-02T06:44:42.627Z,99.993896
2023-03-02T06:45:51.349Z,99.993896
2023-03-02T06:46:59.973Z,99.993896
2023-03-02T06:48:09.636Z,99.993896
2023-03-02T06:49:19.304Z,99.993896
2023-03-02T06:50:28.940Z,99.993896
2023-03-02T06:51:38.640Z,99.993896
2023-03-02T06:52:48.304Z,99.993896
2023-03-02T06:53:55.952Z,99.993896
2023-03-02T06:55:05.608Z,99.993896
2023-03-02T06:56:14.285Z,99.993896
2023-03-02T06:57:23.945Z,99.993896
2023-03-02T06:58:33.609Z,99.993896
2023-03-02T06:59:43.292Z,99.993896
2023-03-02T07:00:53.042Z,99.993896
2023-03-02T07:02:00.668Z,99.993896
2023-03-02T07:03:09.322Z,99.993896
2023-03-02T07:04:19.007Z,99.993896
2023-03-02T07:05:28.692Z,99.993896
2023-03-02T07:06:38.380Z,99.993896
2023-03-02T07:07:47.041Z,99.993896
2023-03-02T07:08:56.721Z,99.993896
2023-03-02T07:10:06.399Z,99.914551
2023-03-02T07:11:16.145Z,98.87085
2023-03-02T07:12:24.831Z,98.516846
2023-03-02T07:13:34.496Z,98.010254
2023-03-02T07:14:43.170Z,97.027588
2023-03-02T07:15:50.833Z,95.941162
2023-03-02T07:17:00.579Z,95.068359
2023-03-02T07:18:09.222Z,94.134521
2023-03-02T07:19:18.899Z,93.365479
2023-03-02T07:20:26.556Z,92.486572
2023-03-02T07:21:35.334Z,91.448975
2023-03-02T07:22:44.932Z,90.307617
2023-03-02T07:23:53.601Z,89.892578
2023-03-02T07:25:03.272Z,89.788818
2023-03-02T07:26:11.936Z,89.752197
2023-03-02T07:27:20.616Z,88.775635
2023-03-02T07:28:30.340Z,87.591553
2023-03-02T07:29:40.055Z,86.761475
2023-03-02T07:30:48.681Z,86.657715
2023-03-02T07:32:00.156Z,86.657715
2023-03-02T07:33:08.785Z,86.450195
2023-03-02T07:34:17.488Z,86.309814
2023-03-02T07:35:26.186Z,85.418701
2023-03-02T07:36:34.790Z,85.418701
2023-03-02T07:37:44.471Z,85.626221
2023-03-02T07:38:54.147Z,86.724854
2023-03-02T07:40:02.794Z,87.097168
2023-03-02T07:41:12.464Z,85.675049
2023-03-02T07:42:22.147Z,84.393311
2023-03-02T07:43:31.814Z,83.422852
2023-03-02T07:44:40.502Z,82.012939
2023-03-02T07:45:49.139Z,83.666992
2023-03-02T07:46:58.833Z,82.843018
2023-03-02T07:48:07.497Z,82.012939
2023-03-02T07:49:16.159Z,81.842041
2023-03-02T07:50:25.837Z,82.25708
2023-03-02T07:51:34.680Z,82.879639
2023-03-02T07:52:44.186Z,82.843018
2023-03-02T07:53:52.855Z,82.080078
2023-03-02T07:55:02.552Z,82.183838
2023-03-02T07:56:12.201Z,81.732178
2023-03-02T07:57:20.874Z,81.591797
2023-03-02T07:58:29.531Z,80.584717
2023-03-02T07:59:40.207Z,78.936768
2023-03-02T08:00:49.854Z,78.112793
2023-03-02T08:01:58.633Z,79.003906
2023-03-02T08:03:08.265Z,77.972412
2023-03-02T08:04:17.935Z,77.386475
2023-03-02T08:05:27.564Z,78.729248
2023-03-02T08:06:37.275Z,78.588867
2023-03-02T08:07:45.975Z,77.868652
2023-03-02T08:08:55.623Z,77.661133
2023-03-02T08:10:04.263Z,77.520752
2023-03-02T08:11:15.081Z,76.904297
2023-03-02T08:12:24.836Z,77.111816
2023-03-02T08:13:32.491Z,77.624512
2023-03-02T08:14:41.154Z,76.556396
2023-03-02T08:15:51.825Z,76.934814
2023-03-02T08:17:00.465Z,76.074219
2023-03-02T08:18:09.240Z,75.457764
2023-03-02T08:19:19.877Z,75.457764
2023-03-02T08:20:29.550Z,75.048828
2023-03-02T08:21:39.206Z,74.224854
2023-03-02T08:22:47.939Z,75.115967
2023-03-02T08:23:56.649Z,74.462891
2023-03-02T08:25:06.236Z,73.706055
2023-03-02T08:26:17.449Z,72.888184
2023-03-02T08:27:24.528Z,72.784424
2023-03-02T08:28:33.193Z,72.991943
2023-03-02T08:29:41.869Z,73.0896
2023-03-02T08:30:51.528Z,72.918701
2023-03-02T08:32:00.294Z,73.779297
2023-03-02T08:33:09.875Z,74.395752
2023-03-02T08:34:19.579Z,74.084473
2023-03-02T08:35:29.289Z,74.395752
2023-03-02T08:36:37.905Z,74.291992
2023-03-02T08:37:47.568Z,73.364258
2023-03-02T08:38:56.243Z,73.297119
2023-03-02T08:40:05.887Z,74.42627
2023-03-02T08:41:14.552Z,74.499512
2023-03-02T08:42:23.201Z,74.224854
2023-03-02T08:43:32.020Z,74.328613
2023-03-02T08:44:41.689Z,74.633789
2023-03-02T08:45:50.423Z,75.561523
2023-03-02T08:46:59.051Z,75.250244
2023-03-02T08:48:08.739Z,74.395752
2023-03-02T08:49:18.442Z,73.468018
2023-03-02T08:50:27.167Z,73.4375
2023-03-02T08:51:35.913Z,72.613525
2023-03-02T08:52:45.510Z,73.742676
2023-03-02T08:53:55.148Z,73.260498
2023-03-02T08:55:04.789Z,74.053955
2023-03-02T08:56:13.401Z,73.706055
2023-03-02T08:57:23.054Z,73.608398
2023-03-02T08:58:32.716Z,73.162842
2023-03-02T08:59:40.367Z,71.276855
2023-03-02T09:00:49.070Z,71.002197
2023-03-02T09:01:58.656Z,71.99707
2023-03-02T09:03:07.417Z,71.893311
2023-03-02T09:04:17.115Z,70.837402
2023-03-02T09:05:25.721Z,71.246338
2023-03-02T09:06:34.386Z,70.76416
2023-03-02T09:07:44.051Z,71.173096
2023-03-02T09:08:51.734Z,71.551514
2023-03-02T09:09:59.342Z,70.904541
2023-03-02T09:11:09.061Z,70.153809
2023-03-02T09:12:17.653Z,69.610596
2023-03-02T09:13:27.376Z,69.885254
2023-03-02T09:14:37.015Z,68.518066
2023-03-02T09:15:46.663Z,67.871094
2023-03-02T09:16:56.391Z,67.565918
2023-03-02T09:18:05.008Z,66.918945
2023-03-02T09:19:13.668Z,67.095947
2023-03-02T09:20:23.355Z,66.278076
2023-03-02T09:21:33.282Z,66.070557
2023-03-02T09:22:41.676Z,65.460205
2023-03-02T09:23:50.385Z,65.557861
2023-03-02T09:24:59.079Z,66.174316
2023-03-02T09:26:08.716Z,65.386963
2023-03-02T09:27:17.412Z,66.278076
2023-03-02T09:28:25.042Z,66.278076
2023-03-02T09:29:34.707Z,66.479492
2023-03-02T09:30:43.365Z,65.765381
2023-03-02T09:31:53.185Z,66.375732
2023-03-02T09:33:01.913Z,65.734863
2023-03-02T09:34:11.505Z,65.39917
2023-03-02T09:35:21.168Z,66.009521
2023-03-02T09:36:29.872Z,63.891602
2023-03-02T09:37:38.661Z,65.283203
2023-03-02T09:38:49.212Z,66.375732
2023-03-02T09:39:57.841Z,66.143799
2023-03-02T09:41:06.539Z,65.600586
2023-03-02T09:42:16.187Z,64.855957
2023-03-02T09:43:24.871Z,64.111328
2023-03-02T09:44:34.580Z,63.293457
2023-03-02T09:45:42.254Z,63.598633
2023-03-02T09:46:51.897Z,63.397217
2023-03-02T09:48:01.568Z,64.172363
2023-03-02T09:49:11.249Z,64.855957
2023-03-02T09:50:20.917Z,64.007568
2023-03-02T09:51:28.594Z,63.262939
2023-03-02T09:52:36.241Z,63.15918
2023-03-02T09:53:45.932Z,62.402344
2023-03-02T09:54:54.586Z,64.752197
2023-03-02T09:56:02.243Z,64.489746
2023-03-02T09:57:11.971Z,63.366699
2023-03-02T09:58:20.628Z,62.609863
2023-03-02T09:59:30.315Z,64.770508
2023-03-02T10:00:38.942Z,66.027832
2023-03-02T10:01:47.606Z,67.08374
2023-03-02T10:03:02.551Z,67.773438
2023-03-02T10:04:08.147Z,67.260742
2023-03-02T10:05:17.691Z,66.748047
2023-03-02T10:06:27.378Z,67.425537
2023-03-02T10:07:37.036Z,68.896484
2023-03-02T10:08:45.724Z,68.115234
2023-03-02T10:09:54.402Z,66.656494
2023-03-02T10:11:03.071Z,65.600586
2023-03-02T10:12:10.714Z,65.643311
2023-03-02T10:13:20.429Z,64.660645
2023-03-02T10:14:30.242Z,63.305664
2023-03-02T10:15:38.941Z,62.768555
2023-03-02T10:16:47.577Z,62.329102
2023-03-02T10:17:57.288Z,61.71875
2023-03-02T10:19:06.950Z,60.906982
2023-03-02T10:20:15.615Z,61.895752
2023-03-02T10:21:24.279Z,60.876465
2023-03-02T10:22:33.941Z,60.644531
2023-03-02T10:23:43.646Z,61.053467
2023-03-02T10:24:52.295Z,60.748291
2023-03-02T10:26:00.952Z,60.876465
2023-03-02T10:27:09.634Z,60.772705
2023-03-02T10:28:19.298Z,60.571289
2023-03-02T10:29:28.014Z,59.960938
2023-03-02T10:30:35.713Z,61.053467
2023-03-02T10:31:45.295Z,60.845947
2023-03-02T10:32:53.952Z,60.107422
2023-03-02T10:34:03.633Z,59.674072
2023-03-02T10:35:12.339Z,59.088135
2023-03-02T10:36:21.936Z,60.540771
2023-03-02T10:37:31.631Z,60.192871
2023-03-02T10:38:40.263Z,61.749268
2023-03-02T10:39:48.946Z,62.182617
2023-03-02T10:40:58.614Z,62.463379
2023-03-02T10:42:08.455Z,62.841797
2023-03-02T10:43:16.986Z,60.845947
2023-03-02T10:44:25.666Z,60.644531
2023-03-02T10:45:34.331Z,59.93042
2023-03-02T10:46:44.111Z,60.064697
2023-03-02T10:47:52.633Z,60.949707
2023-03-02T10:49:02.351Z,59.906006
2023-03-02T10:50:12.017Z,59.295654
2023-03-02T10:51:20.647Z,59.729004
2023-03-02T10:52:30.315Z,60.540771
2023-03-02T10:53:39.954Z,60.717773
2023-03-02T10:54:48.614Z,60.180664
2023-03-02T10:55:58.282Z,59.442139
2023-03-02T10:57:07.954Z,59.008789
2023-03-02T10:58:16.623Z,58.599854
2023-03-02T10:59:26.335Z,58.47168
2023-03-02T11:00:35.986Z,57.733154
2023-03-02T11:01:44.671Z,57.37915
2023-03-02T11:02:54.299Z,57.58667
2023-03-02T11:04:03.187Z,59.295654
2023-03-02T11:05:12.690Z,59.466553
2023-03-02T11:06:21.357Z,59.033203
2023-03-02T11:07:31.034Z,58.80127
2023-03-02T11:08:40.697Z,58.398438
2023-03-02T11:09:50.395Z,58.422852
2023-03-02T11:11:00.813Z,60.076904
2023-03-02T11:12:09.769Z,58.935547
2023-03-02T11:13:18.439Z,58.502197
2023-03-02T11:14:28.109Z,58.905029
2023-03-02T11:15:35.863Z,58.270264
2023-03-02T11:16:44.431Z,58.270264
2023-03-02T11:17:54.149Z,57.763672
2023-03-02T11:19:02.834Z,58.776855
2023-03-02T11:20:11.617Z,57.93457
2023-03-02T11:21:20.289Z,57.70874
2023-03-02T11:22:29.943Z,58.288574
2023-03-02T11:23:39.624Z,57.043457
2023-03-02T11:24:48.383Z,55.9021
2023-03-02T11:25:57.004Z,55.297852
2023-03-02T11:27:06.660Z,56.103516
2023-03-02T11:28:16.315Z,55.371094
2023-03-02T11:29:25.997Z,54.663086
2023-03-02T11:30:35.661Z,55.194092
2023-03-02T11:31:45.417Z,54.711914
2023-03-02T11:32:55.106Z,55.755615
2023-03-02T11:34:11.511Z,56.286621
2023-03-02T11:35:12.385Z,56.311035
2023-03-02T11:36:22.063Z,57.330322
2023-03-02T11:37:30.710Z,57.910156
2023-03-02T11:38:40.408Z,56.665039
2023-03-02T11:39:55.304Z,58.361816
2023-03-02T11:40:59.811Z,56.866455
2023-03-02T11:42:09.495Z,57.348633
2023-03-02T11:43:17.141Z,55.883789
2023-03-02T11:44:25.815Z,56.286621
2023-03-02T11:45:35.505Z,56.518555
2023-03-02T11:46:45.224Z,57.531738
2023-03-02T11:48:02.291Z,58.270264
2023-03-02T11:49:06.549Z,58.544922
2023-03-02T11:50:15.171Z,57.427979
2023-03-02T11:51:24.847Z,57.763672
2023-03-02T11:52:32.497Z,59.863281
2023-03-02T11:53:42.153Z,57.580566
2023-03-02T11:54:51.819Z,56.158447
2023-03-02T11:56:01.489Z,56.109619
2023-03-02T11:57:10.169Z,56.213379
2023-03-02T11:58:19.822Z,56.768799
2023-03-02T11:59:29.479Z,56.134033
2023-03-02T12:00:39.181Z,55.499268
2023-03-02T12:01:46.864Z,54.180908
2023-03-02T12:02:54.454Z,54.968262
2023-03-02T12:05:12.922Z,55.651855
2023-03-02T12:06:21.573Z,55.041504
2023-03-02T12:07:30.223Z,55.853271
2023-03-02T12:08:38.892Z,55.426025
2023-03-02T12:09:46.542Z,56.103516
2023-03-02T12:10:56.241Z,55.804443
2023-03-02T12:12:06.258Z,55.474854
2023-03-02T12:13:14.557Z,53.320312
2023-03-02T12:14:23.228Z,53.601074
2023-03-02T12:15:30.944Z,53.778076
2023-03-02T12:16:40.662Z,53.546143
2023-03-02T12:17:50.268Z,52.91748
2023-03-02T12:18:58.923Z,51.300049
2023-03-02T12:20:08.602Z,52.91748
2023-03-02T12:21:18.295Z,51.806641
2023-03-02T12:22:26.934Z,52.539062
2023-03-02T12:23:35.598Z,53.045654
2023-03-02T12:24:44.268Z,52.740479
2023-03-02T12:25:53.962Z,51.403809
2023-03-02T12:27:01.668Z,51.177979
2023-03-02T12:28:11.370Z,52.038574
2023-03-02T12:29:21.074Z,50.097656
2023-03-02T12:30:30.770Z,50.073242
2023-03-02T12:31:39.540Z,49.365234
2023-03-02T12:32:49.123Z,49.365234
2023-03-02T12:33:58.788Z,49.768066
2023-03-02T12:35:08.451Z,48.962402
2023-03-02T12:36:18.141Z,49.920654
2023-03-02T12:37:25.914Z,49.920654
2023-03-02T12:38:35.528Z,50.90332
2023-03-02T12:39:44.143Z,49.993896
2023-03-02T12:40:54.821Z,49.517822
2023-03-02T12:42:04.567Z,49.694824
2023-03-02T12:43:14.298Z,49.365234
2023-03-02T12:44:23.909Z,49.298096
2023-03-02T12:45:33.609Z,47.607422
2023-03-02T12:46:41.284Z,48.31543
2023-03-02T12:47:51.161Z,47.808838
2023-03-02T12:49:00.789Z,48.193359
2023-03-02T12:50:11.310Z,48.66333
2023-03-02T12:51:21.094Z,49.420166
2023-03-02T12:52:30.728Z,49.09668
2023-03-02T12:53:40.342Z,48.370361
2023-03-02T12:54:47.996Z,47.338867
2023-03-02T12:55:56.678Z,46.490479
2023-03-02T12:57:06.352Z,46.862793
2023-03-02T12:58:15.044Z,47.363281
2023-03-02T12:59:24.720Z,48.168945
2023-03-02T13:00:33.399Z,47.564697
2023-03-02T13:01:42.066Z,48.266602
2023-03-02T13:02:51.808Z,47.943115
2023-03-02T13:04:00.483Z,47.271729
2023-03-02T13:05:09.075Z,46.77124
2023-03-02T13:06:20.249Z,45.404053
2023-03-02T13:07:27.417Z,44.903564
2023-03-02T13:08:36.129Z,44.598389
2023-03-02T13:09:56.073Z,44.641113
2023-03-02T13:10:55.392Z,46.490479